Time;durP1;ratioP1;P1;durP2;ratioP2;P2;SDS_P1;SDS_P2;PMS_P1;PMS_P2;Temp;Humidity;BMP_temperature;BMP_pressure;BME280_temperature;BME280_humidity;BME280_pressure;Samples;Min_cycle;Max_cycle;Signal;HPM_P1;HPM_P2
2023/08/01 00:04:12;;;;;;;10.90;4.40;;;;;;;21.73;87.66;99294.02;674761;1262;139580;-76
2023/08/01 00:19:15;;;;;;;8.20;4.80;;;;;;;21.48;89.46;99281.77;671719;1259;140364;-76
2023/08/01 00:34:19;;;;;;;7.50;4.00;;;;;;;21.59;88.80;99274.27;676130;1259;139650;-76
2023/08/01 00:49:22;;;;;;;7.50;4.30;;;;;;;22.00;86.30;99252.94;676076;1262;139828;-76
2023/08/01 01:04:27;;;;;;;5.90;3.50;;;;;;;21.66;87.55;99227.73;674748;1259;140008;-77
2023/08/01 01:19:30;;;;;;;5.30;4.00;;;;;;;21.98;85.03;99205.73;681010;1262;140590;-77
2023/08/01 01:34:33;;;;;;;5.70;3.70;;;;;;;21.83;84.88;99176.17;679401;1266;140422;-78
2023/08/01 01:49:37;;;;;;;10.80;3.40;;;;;;;21.58;85.97;99159.48;675442;1265;139444;-76
2023/08/01 02:04:40;;;;;;;6.20;3.50;;;;;;;21.41;86.75;99139.43;678978;1262;139549;-77
2023/08/01 02:19:44;;;;;;;5.20;3.30;;;;;;;21.65;85.51;99135.87;676919;1260;139243;-76
2023/08/01 02:34:47;;;;;;;6.50;3.80;;;;;;;21.20;88.56;99131.71;678489;1265;139832;-76
2023/08/01 02:49:51;;;;;;;7.30;3.80;;;;;;;21.07;89.52;99118.96;678660;1263;139602;-76
2023/08/01 03:04:54;;;;;;;7.10;5.20;;;;;;;21.03;90.14;99116.75;680492;1260;139590;-77
2023/08/01 03:19:58;;;;;;;6.50;4.30;;;;;;;21.14;89.60;99096.25;681283;1260;140239;-76
2023/08/01 03:35:06;;;;;;;10.70;4.90;;;;;;;20.90;91.63;99081.30;681433;1264;139694;-77
2023/08/01 03:50:10;;;;;;;6.70;3.80;;;;;;;21.66;87.97;99071.05;679600;1262;139716;-77
2023/08/01 04:05:13;;;;;;;7.30;4.70;;;;;;;21.35;90.17;99057.16;675384;1264;140146;-76
2023/08/01 04:20:16;;;;;;;8.60;4.50;;;;;;;22.07;85.98;99047.71;678539;1262;140506;-76
2023/08/01 04:35:20;;;;;;;5.90;3.80;;;;;;;21.86;87.46;99037.49;674138;1259;140282;-76
2023/08/01 04:50:23;;;;;;;6.30;3.90;;;;;;;21.42;89.66;99015.59;673515;1262;139725;-75
2023/08/01 05:05:27;;;;;;;7.80;3.70;;;;;;;21.76;87.90;99011.14;679086;1263;141420;-75
2023/08/01 05:20:31;;;;;;;6.40;3.70;;;;;;;21.83;87.76;99002.77;679025;1260;139881;-74
2023/08/01 05:35:34;;;;;;;9.00;4.80;;;;;;;21.86;88.64;98993.83;678709;1262;139508;-75
2023/08/01 05:50:38;;;;;;;6.10;4.40;;;;;;;21.79;90.69;99005.20;679132;1258;139125;-76
2023/08/01 06:05:41;;;;;;;11.10;4.80;;;;;;;21.86;92.23;98991.00;680229;1275;139685;-76
2023/08/01 06:20:45;;;;;;;10.30;5.00;;;;;;;21.56;96.69;98982.77;680647;1262;139538;-77
2023/08/01 06:35:48;;;;;;;7.80;5.60;;;;;;;22.17;94.59;98963.94;680799;1263;140517;-77
2023/08/01 06:50:52;;;;;;;7.30;4.50;;;;;;;22.33;95.50;98957.64;681283;1264;139291;-77
2023/08/01 07:05:55;;;;;;;7.20;5.10;;;;;;;22.59;94.33;98941.98;680992;1263;141731;-78
2023/08/01 07:21:02;;;;;;;9.60;5.50;;;;;;;22.31;93.34;98932.93;680491;1265;139434;-77
2023/08/01 07:36:06;;;;;;;7.20;4.80;;;;;;;21.76;96.57;98933.21;679639;1261;140130;-76
2023/08/01 07:51:11;;;;;;;11.00;5.30;;;;;;;22.03;95.36;98931.84;678500;1264;139241;-77
2023/08/01 08:06:14;;;;;;;7.80;4.40;;;;;;;22.80;92.75;98930.73;678086;1267;140682;-77
2023/08/01 08:21:18;;;;;;;8.80;4.50;;;;;;;22.26;96.79;98931.02;679369;1266;139455;-76
2023/08/01 08:36:21;;;;;;;7.70;4.90;;;;;;;22.82;96.27;98917.13;679752;1266;139904;-77
2023/08/01 08:51:28;;;;;;;9.70;5.20;;;;;;;23.43;94.27;98908.55;679675;1265;139988;-79
2023/08/01 09:06:44;;;;;;;14.80;5.90;;;;;;;23.04;93.53;98914.62;680330;1265;142750;-77
2023/08/01 09:21:52;;;;;;;10.70;5.90;;;;;;;22.02;100.00;98912.77;680597;1268;139815;-76
2023/08/01 09:36:59;;;;;;;11.30;6.90;;;;;;;22.14;100.00;98905.80;680915;1260;139940;-77
2023/08/01 09:52:03;;;;;;;10.70;6.10;;;;;;;21.70;100.00;98892.82;680470;1259;139775;-77
2023/08/01 10:07:11;;;;;;;8.80;5.80;;;;;;;21.58;100.00;98880.04;681091;1263;140189;-77
2023/08/01 10:22:15;;;;;;;11.50;5.70;;;;;;;21.47;100.00;98862.77;679146;1260;140804;-79
2023/08/01 10:37:19;;;;;;;10.50;6.30;;;;;;;21.53;100.00;98851.04;680254;1260;140144;-78
2023/08/01 10:52:27;;;;;;;11.40;6.20;;;;;;;22.24;100.00;98833.40;681269;1259;140821;-77
2023/08/01 11:07:33;;;;;;;12.10;5.90;;;;;;;22.11;100.00;98811.55;680682;1260;140228;-77
2023/08/01 11:22:49;;;;;;;8.70;5.90;;;;;;;22.14;100.00;98798.12;679103;1260;139217;-77
2023/08/01 11:37:55;;;;;;;7.80;5.20;;;;;;;22.26;100.00;98782.84;680203;1265;139214;-79
2023/08/01 11:53:00;;;;;;;6.20;4.40;;;;;;;22.65;100.00;98767.25;678524;1263;372869;-79
2023/08/01 12:08:10;;;;;;;8.50;5.10;;;;;;;23.05;100.00;98749.70;678283;1264;139736;-78
2023/08/01 12:23:23;;;;;;;8.00;4.10;;;;;;;23.23;100.00;98737.55;678634;1261;140186;-77
2023/08/01 12:38:27;;;;;;;9.00;4.60;;;;;;;23.73;99.61;98717.42;679600;1260;140195;-77
2023/08/01 12:53:31;;;;;;;8.00;4.50;;;;;;;22.98;100.00;98704.55;680026;1261;140227;-77
2023/08/01 13:08:39;;;;;;;6.00;4.00;;;;;;;23.91;98.82;98680.13;680059;1263;139745;-77
2023/08/01 13:23:43;;;;;;;6.00;4.20;;;;;;;24.15;95.00;98677.83;678515;1262;139097;-78
2023/08/01 13:38:48;;;;;;;10.10;4.60;;;;;;;24.03;95.50;98668.46;678993;1260;138914;-76
2023/08/01 13:53:53;;;;;;;13.20;6.60;;;;;;;23.68;98.86;98641.72;679308;1261;139123;-76
2023/08/01 14:08:59;;;;;;;7.70;4.70;;;;;;;23.63;98.70;98620.48;675767;1263;139254;-77
2023/08/01 14:24:04;;;;;;;7.40;4.90;;;;;;;24.55;95.36;98607.16;677053;1260;139581;-77
2023/08/01 14:39:09;;;;;;;9.70;5.80;;;;;;;24.42;94.99;98591.45;677744;1262;140309;-75
2023/08/01 14:54:25;;;;;;;9.80;6.40;;;;;;;23.74;98.69;98578.25;680915;1263;139410;-76
2023/08/01 15:09:44;;;;;;;11.70;6.80;;;;;;;23.18;100.00;98561.76;680062;1263;139000;-75
2023/08/01 15:24:49;;;;;;;14.70;8.70;;;;;;;23.23;100.00;98558.98;679686;1263;141548;-76
2023/08/01 15:39:53;;;;;;;10.20;5.10;;;;;;;24.28;100.00;98543.96;679447;1265;140246;-77
2023/08/01 15:54:57;;;;;;;5.70;3.50;;;;;;;24.75;99.14;98549.58;680170;1262;139969;-76
2023/08/01 16:10:01;;;;;;;6.90;2.90;;;;;;;24.08;96.34;98547.26;679960;1264;139776;-77
2023/08/01 16:25:05;;;;;;;5.20;3.20;;;;;;;23.59;95.98;98539.34;680920;1263;139151;-75
2023/08/01 16:40:10;;;;;;;4.70;3.50;;;;;;;23.67;94.23;98546.48;679918;1262;139818;-77
2023/08/01 16:55:17;;;;;;;3.80;2.30;;;;;;;23.89;92.29;98567.70;679683;1263;139632;-77
2023/08/01 17:10:20;;;;;;;5.20;2.40;;;;;;;21.68;100.00;98613.14;680418;1264;139434;-74
2023/08/01 17:25:25;;;;;;;2.80;1.30;;;;;;;21.70;100.00;98622.02;679988;1261;140540;-75
2023/08/01 17:40:28;;;;;;;13.40;5.80;;;;;;;20.73;100.00;98641.08;679627;1260;139603;-75
2023/08/01 17:55:31;;;;;;;11.40;5.90;;;;;;;21.27;100.00;98656.25;679856;1264;139567;-78
2023/08/01 18:10:36;;;;;;;6.50;4.00;;;;;;;21.66;100.00;98661.91;681058;1263;141219;-76
2023/08/01 18:25:40;;;;;;;7.60;4.10;;;;;;;21.08;100.00;98686.44;680579;1263;140888;-75
2023/08/01 18:40:44;;;;;;;6.60;4.00;;;;;;;21.64;100.00;98701.27;679399;1259;141200;-75
2023/08/01 18:55:48;;;;;;;11.50;5.40;;;;;;;22.19;100.00;98714.02;681297;1262;139614;-76
2023/08/01 19:10:51;;;;;;;10.50;5.70;;;;;;;22.23;100.00;98725.52;681410;1263;142114;-76
2023/08/01 19:25:55;;;;;;;8.70;4.40;;;;;;;20.85;100.00;98728.47;679933;1266;140236;-76
2023/08/01 19:41:00;;;;;;;8.90;4.40;;;;;;;21.47;100.00;98732.45;681088;1262;139516;-78
2023/08/01 19:56:04;;;;;;;10.40;5.40;;;;;;;21.56;100.00;98751.95;680675;1265;139939;-75
2023/08/01 20:11:08;;;;;;;9.80;5.30;;;;;;;21.52;100.00;98771.79;680856;1260;141084;-75
2023/08/01 20:26:12;;;;;;;12.00;7.00;;;;;;;20.28;100.00;98783.66;678061;1263;141233;-75
2023/08/01 20:41:19;;;;;;;14.10;8.30;;;;;;;21.50;100.00;98791.35;677782;1262;139810;-78
2023/08/01 20:56:25;;;;;;;14.80;8.10;;;;;;;21.13;100.00;98790.96;677190;1259;139739;-78
2023/08/01 21:11:29;;;;;;;10.50;6.70;;;;;;;21.32;100.00;98802.27;679042;1265;139804;-76
2023/08/01 21:26:32;;;;;;;11.80;5.80;;;;;;;21.36;100.00;98808.83;678339;1263;140639;-77
2023/08/01 21:41:36;;;;;;;9.10;5.40;;;;;;;21.38;100.00;98805.49;679339;1265;140229;-77
2023/08/01 21:56:40;;;;;;;13.10;7.30;;;;;;;21.55;100.00;98827.92;679371;1263;139428;-78
2023/08/01 22:11:44;;;;;;;11.30;7.60;;;;;;;21.57;100.00;98809.77;677140;1259;139817;-77
2023/08/01 22:26:50;;;;;;;12.90;6.90;;;;;;;21.77;100.00;98821.44;677252;1265;139602;-76
2023/08/01 22:41:54;;;;;;;10.60;6.20;;;;;;;21.73;100.00;98837.84;678517;1263;139581;-78
2023/08/01 22:56:58;;;;;;;16.20;10.50;;;;;;;21.54;100.00;98844.92;678680;1263;139730;-78
2023/08/01 23:12:04;;;;;;;14.20;9.10;;;;;;;20.81;100.00;98859.65;677833;1263;140005;-76
2023/08/01 23:27:10;;;;;;;12.80;6.90;;;;;;;20.81;100.00;98876.62;677717;1263;141008;-77
2023/08/01 23:42:14;;;;;;;12.70;6.30;;;;;;;20.89;100.00;98882.89;678537;1266;157625;-76
2023/08/01 23:57:18;;;;;;;13.10;6.00;;;;;;;20.87;100.00;98885.94;678171;1263;139870;-77
